createdAt,value
2023-05-01T00:00:15.931Z,46.35
2023-05-01T00:02:48.820Z,46.41
2023-05-01T00:05:17.459Z,46.32
2023-05-01T00:07:46.951Z,46.18
2023-05-01T00:10:17.177Z,46.18
2023-05-01T00:12:46.952Z,46.37
2023-05-01T00:15:16.827Z,46.10
2023-05-01T00:17:45.892Z,46.22
2023-05-01T00:20:15.425Z,45.90
2023-05-01T00:22:44.814Z,45.79
2023-05-01T00:25:13.580Z,46.30
2023-05-01T00:27:45.584Z,46.39
2023-05-01T00:30:15.132Z,46.17
2023-05-01T00:32:43.971Z,46.10
2023-05-01T00:35:14.864Z,46.11
2023-05-01T00:37:44.119Z,45.91
2023-05-01T00:40:12.902Z,45.88
2023-05-01T00:42:42.706Z,46.07
2023-05-01T00:45:12.301Z,45.47
2023-05-01T00:47:42.685Z,45.90
2023-05-01T00:50:12.377Z,45.89
2023-05-01T00:52:41.642Z,45.89
2023-05-01T00:55:10.979Z,45.90
2023-05-01T00:57:39.798Z,45.99
2023-05-01T01:00:13.335Z,45.80
2023-05-01T01:02:46.033Z,45.27
2023-05-01T01:05:17.679Z,45.11
2023-05-01T01:07:58.961Z,45.08
2023-05-01T01:10:36.257Z,44.94
2023-05-01T01:13:29.154Z,44.85
2023-05-01T01:16:04.461Z,44.84
2023-05-01T01:18:40.637Z,46.15
2023-05-01T01:21:28.834Z,45.08
2023-05-01T01:24:34.691Z,45.13
2023-05-01T01:27:40.771Z,45.40
2023-05-01T01:30:39.019Z,44.65
2023-05-01T01:33:34.823Z,44.60
2023-05-01T01:36:17.565Z,45.05
2023-05-01T01:38:55.008Z,44.67
2023-05-01T01:41:32.464Z,44.95
2023-05-01T01:44:38.902Z,45.17
2023-05-01T01:47:12.703Z,44.65
2023-05-01T01:49:47.076Z,45.02
2023-05-01T01:52:18.868Z,45.12
2023-05-01T01:55:01.522Z,45.16
2023-05-01T01:57:32.294Z,44.28
2023-05-01T02:00:01.364Z,44.03
2023-05-01T02:02:34.197Z,44.18
2023-05-01T02:05:07.216Z,43.94
2023-05-01T02:07:41.455Z,44.04
2023-05-01T02:10:15.416Z,44.01
2023-05-01T02:12:46.803Z,43.85
2023-05-01T02:15:19.413Z,43.66
2023-05-01T02:17:49.304Z,43.91
2023-05-01T02:20:19.062Z,43.91
2023-05-01T02:22:49.264Z,43.95
2023-05-01T02:25:18.759Z,43.79
2023-05-01T02:28:13.196Z,43.52
2023-05-01T02:30:43.693Z,43.21
2023-05-01T02:33:13.862Z,43.11
2023-05-01T02:35:50.687Z,43.04
2023-05-01T02:38:21.270Z,43.26
2023-05-01T02:40:57.338Z,43.63
2023-05-01T02:43:28.382Z,43.57
2023-05-01T02:46:00.190Z,43.58
2023-05-01T02:48:31.804Z,43.12
2023-05-01T02:51:02.849Z,43.09
2023-05-01T02:53:33.276Z,43.30
2023-05-01T02:56:11.449Z,43.36
2023-05-01T02:58:41.529Z,43.33
2023-05-01T03:01:11.946Z,43.63
2023-05-01T03:03:42.531Z,43.53
2023-05-01T03:06:12.704Z,43.54
2023-05-01T03:08:45.353Z,43.23
2023-05-01T03:11:16.607Z,42.91
2023-05-01T03:13:46.547Z,42.66
2023-05-01T03:16:15.609Z,42.90
2023-05-01T03:18:44.892Z,42.99
2023-05-01T03:21:13.506Z,42.96
2023-05-01T03:23:42.917Z,43.19
2023-05-01T03:26:12.125Z,43.22
2023-05-01T03:28:41.330Z,43.26
2023-05-01T03:31:10.692Z,43.03
2023-05-01T03:33:42.403Z,42.70
2023-05-01T03:36:14.071Z,42.65
2023-05-01T03:38:44.668Z,42.58
2023-05-01T03:41:13.695Z,43.32
2023-05-01T03:44:03.852Z,43.43
2023-05-01T03:46:42.757Z,43.29
2023-05-01T03:49:17.967Z,43.52
2023-05-01T03:51:50.461Z,43.48
2023-05-01T03:54:20.768Z,43.31
2023-05-01T03:56:59.518Z,43.24
2023-05-01T03:59:28.079Z,43.02
2023-05-01T04:01:57.181Z,43.31
2023-05-01T04:04:28.261Z,43.47
2023-05-01T04:06:59.552Z,43.18
2023-05-01T04:09:30.417Z,43.18
2023-05-01T04:12:00.864Z,43.13
2023-05-01T04:14:29.910Z,43.09
2023-05-01T04:17:00.560Z,43.47
2023-05-01T04:19:30.955Z,43.21
2023-05-01T04:22:02.717Z,43.16
2023-05-01T04:24:33.111Z,42.99
2023-05-01T04:27:01.914Z,43.01
2023-05-01T04:29:30.747Z,42.93
2023-05-01T04:31:59.449Z,42.68
2023-05-01T04:34:30.478Z,42.30
2023-05-01T04:36:59.301Z,42.25
2023-05-01T04:39:29.055Z,42.80
2023-05-01T04:41:59.469Z,42.24
2023-05-01T04:44:28.613Z,42.14
2023-05-01T04:46:57.410Z,42.25
2023-05-01T04:49:26.759Z,43.17
2023-05-01T04:51:55.603Z,42.82
2023-05-01T04:54:26.774Z,42.30
2023-05-01T04:56:55.036Z,42.25
2023-05-01T04:59:23.978Z,42.93
2023-05-01T05:01:57.686Z,43.73
2023-05-01T05:04:28.088Z,42.54
2023-05-01T05:06:58.995Z,42.10
2023-05-01T05:09:40.764Z,41.98
2023-05-01T05:12:09.309Z,41.89
2023-05-01T05:14:38.602Z,41.81
2023-05-01T05:17:08.058Z,42.02
2023-05-01T05:19:36.846Z,42.53
2023-05-01T05:22:06.767Z,42.22
2023-05-01T05:24:48.078Z,42.55
2023-05-01T05:27:18.355Z,42.53
2023-05-01T05:29:48.002Z,42.48
2023-05-01T05:32:18.117Z,42.57
2023-05-01T05:34:48.266Z,42.57
2023-05-01T05:37:18.647Z,42.66
2023-05-01T05:39:53.817Z,42.63
2023-05-01T05:42:24.278Z,42.57
2023-05-01T05:44:53.545Z,42.36
2023-05-01T05:47:22.960Z,42.41
2023-05-01T05:49:51.835Z,42.31
2023-05-01T05:52:21.183Z,42.27
2023-05-01T05:54:51.060Z,42.25
2023-05-01T05:57:20.175Z,42.05
2023-05-01T05:59:51.743Z,42.48
2023-05-01T06:02:24.709Z,42.42
2023-05-01T06:04:53.052Z,42.09
2023-05-01T06:07:24.179Z,42.48
2023-05-01T06:09:55.657Z,42.67
2023-05-01T06:12:25.212Z,42.76
2023-05-01T06:14:54.701Z,42.31
2023-05-01T06:17:24.756Z,42.21
2023-05-01T06:19:54.327Z,42.15
2023-05-01T06:22:24.612Z,42.16
2023-05-01T06:25:03.448Z,42.18
2023-05-01T06:27:33.095Z,42.14
2023-05-01T06:30:01.784Z,42.02
2023-05-01T06:32:33.058Z,42.02
2023-05-01T06:35:03.188Z,42.05
2023-05-01T06:37:33.027Z,42.06
2023-05-01T06:40:02.943Z,41.96
2023-05-01T06:42:32.508Z,41.90
2023-05-01T06:45:04.539Z,41.90
2023-05-01T06:47:35.428Z,42.39
2023-05-01T06:50:05.858Z,42.14
2023-05-01T06:52:35.302Z,41.83
2023-05-01T06:55:04.583Z,41.91
2023-05-01T06:57:33.600Z,41.46
2023-05-01T07:00:04.553Z,41.46
2023-05-01T07:02:33.318Z,41.49
2023-05-01T07:05:02.762Z,41.88
2023-05-01T07:07:31.877Z,41.56
2023-05-01T07:10:01.433Z,41.40
2023-05-01T07:12:31.526Z,41.33
2023-05-01T07:15:00.531Z,42.18
2023-05-01T07:17:31.590Z,42.46
2023-05-01T07:20:05.654Z,41.80
2023-05-01T07:22:35.028Z,41.23
2023-05-01T07:25:04.945Z,41.71
2023-05-01T07:27:34.938Z,41.84
2023-05-01T07:30:05.795Z,40.98
2023-05-01T07:32:35.249Z,41.05
2023-05-01T07:35:04.389Z,41.05
2023-05-01T07:37:33.485Z,41.40
2023-05-01T07:40:04.938Z,41.31
2023-05-01T07:42:35.273Z,41.07
2023-05-01T07:45:04.379Z,41.05
2023-05-01T07:47:33.494Z,41.12
2023-05-01T07:50:03.128Z,41.03
2023-05-01T07:52:31.810Z,41.04
2023-05-01T07:55:00.478Z,41.02
2023-05-01T07:57:29.387Z,41.03
2023-05-01T07:59:59.708Z,40.99
2023-05-01T08:02:29.695Z,40.92
2023-05-01T08:05:00.175Z,40.87
2023-05-01T08:07:30.146Z,40.79
2023-05-01T08:10:01.137Z,40.82
2023-05-01T08:12:32.649Z,40.82
2023-05-01T08:15:01.505Z,40.80
2023-05-01T08:17:32.222Z,40.84
2023-05-01T08:20:07.007Z,41.75
2023-05-01T08:22:37.334Z,42.81
2023-05-01T08:25:07.333Z,41.24
2023-05-01T08:27:37.431Z,41.05
2023-05-01T08:30:08.421Z,40.88
2023-05-01T08:32:36.964Z,40.77
2023-05-01T08:35:05.705Z,40.73
2023-05-01T08:37:36.094Z,40.68
2023-05-01T08:40:09.271Z,40.65
2023-05-01T08:42:40.067Z,40.75
2023-05-01T08:45:11.605Z,40.70
2023-05-01T08:47:41.524Z,40.69
2023-05-01T08:50:12.651Z,40.66
2023-05-01T08:52:45.032Z,40.68
2023-05-01T08:55:19.955Z,40.73
2023-05-01T08:57:49.263Z,40.69
2023-05-01T09:00:21.223Z,40.62
2023-05-01T09:02:52.663Z,40.63
2023-05-01T09:05:21.884Z,40.53
2023-05-01T09:07:51.685Z,41.14
2023-05-01T09:10:22.704Z,41.12
2023-05-01T09:12:59.019Z,41.22
2023-05-01T09:15:29.307Z,41.12
2023-05-01T09:18:03.496Z,41.12
2023-05-01T09:20:34.195Z,41.14
2023-05-01T09:23:03.016Z,41.04
2023-05-01T09:25:32.525Z,40.98
2023-05-01T09:28:02.489Z,40.81
2023-05-01T09:30:39.080Z,40.68
2023-05-01T09:33:16.219Z,40.68
2023-05-01T09:35:51.385Z,40.74
2023-05-01T09:38:25.327Z,40.25
2023-05-01T09:40:57.085Z,41.56
2023-05-01T09:43:31.149Z,40.74
2023-05-01T09:46:13.508Z,40.70
2023-05-01T09:49:00.624Z,40.33
2023-05-01T09:51:37.631Z,40.11
2023-05-01T09:54:07.556Z,39.81
2023-05-01T09:56:48.530Z,39.82
2023-05-01T09:59:20.763Z,39.71
2023-05-01T10:01:51.165Z,40.06
2023-05-01T10:04:32.234Z,40.47
2023-05-01T10:07:21.549Z,40.27
2023-05-01T10:09:52.955Z,39.82
2023-05-01T10:12:28.639Z,39.70
2023-05-01T10:15:13.758Z,39.60
2023-05-01T10:17:52.805Z,39.77
2023-05-01T10:20:21.544Z,39.61
2023-05-01T10:22:51.889Z,39.88
2023-05-01T10:25:22.851Z,39.57
2023-05-01T10:27:53.493Z,39.62
2023-05-01T10:30:23.204Z,39.50
2023-05-01T10:32:53.435Z,39.51
2023-05-01T10:35:30.736Z,39.56
2023-05-01T10:38:13.221Z,39.67
2023-05-01T10:40:51.205Z,39.69
2023-05-01T10:43:31.436Z,39.66
2023-05-01T10:46:10.088Z,39.63
2023-05-01T10:48:39.759Z,39.60
2023-05-01T10:51:13.489Z,39.53
2023-05-01T10:53:47.534Z,40.14
2023-05-01T10:56:34.956Z,40.49
2023-05-01T10:59:08.537Z,40.35
2023-05-01T11:01:41.895Z,40.29
2023-05-01T11:04:48.917Z,40.69
2023-05-01T11:07:20.190Z,40.54
2023-05-01T11:09:56.126Z,40.54
2023-05-01T11:12:52.292Z,40.74
2023-05-01T11:15:32.878Z,40.62
2023-05-01T11:18:04.518Z,40.49
2023-05-01T11:20:40.160Z,40.46
2023-05-01T11:23:10.142Z,40.51
2023-05-01T11:25:41.228Z,40.34
2023-05-01T11:28:11.005Z,40.38
2023-05-01T11:30:43.496Z,40.37
2023-05-01T11:33:13.948Z,40.69
2023-05-01T11:35:47.406Z,40.86
2023-05-01T11:38:22.444Z,40.73
2023-05-01T11:40:59.037Z,40.73
2023-05-01T11:43:28.927Z,40.98
2023-05-01T11:46:03.829Z,41.01
2023-05-01T11:48:33.350Z,40.99
2023-05-01T11:51:13.411Z,41.34
2023-05-01T11:53:45.806Z,40.80
2023-05-01T11:56:26.938Z,41.34
2023-05-01T11:59:01.365Z,40.97
2023-05-01T12:01:40.667Z,41.22
2023-05-01T12:04:09.756Z,41.04
2023-05-01T12:06:41.511Z,41.24
2023-05-01T12:09:20.160Z,41.40
2023-05-01T12:11:53.123Z,41.34
2023-05-01T12:14:23.395Z,41.07
2023-05-01T12:16:52.474Z,40.97
2023-05-01T12:19:23.931Z,41.05
2023-05-01T12:22:08.369Z,41.18
2023-05-01T12:24:38.321Z,41.01
2023-05-01T12:27:09.725Z,40.87
2023-05-01T12:29:43.561Z,41.22
2023-05-01T12:32:13.291Z,41.00
2023-05-01T12:34:47.297Z,40.98
2023-05-01T12:37:17.605Z,40.78
2023-05-01T12:39:48.559Z,40.64
2023-05-01T12:42:19.361Z,40.70
2023-05-01T12:44:49.052Z,40.72
2023-05-01T12:47:18.942Z,40.79
2023-05-01T12:49:49.397Z,40.91
2023-05-01T12:52:28.861Z,41.13
2023-05-01T12:55:05.985Z,41.35
2023-05-01T12:57:35.660Z,41.43
2023-05-01T13:00:05.755Z,41.32
2023-05-01T13:02:36.013Z,41.08
2023-05-01T13:05:10.712Z,41.26
2023-05-01T13:07:40.923Z,41.39
2023-05-01T13:10:09.813Z,41.27
2023-05-01T13:12:46.137Z,41.24
2023-05-01T13:15:23.081Z,41.19
2023-05-01T13:17:52.330Z,41.08
2023-05-01T13:20:28.826Z,41.22
2023-05-01T13:23:01.080Z,41.20
2023-05-01T13:25:29.664Z,41.40
2023-05-01T13:28:03.206Z,41.23
2023-05-01T13:30:36.034Z,41.15
2023-05-01T13:33:08.483Z,41.04
2023-05-01T13:35:40.182Z,41.05
2023-05-01T13:38:13.322Z,41.14
2023-05-01T13:40:43.133Z,41.27
2023-05-01T13:43:16.989Z,41.36
2023-05-01T13:45:48.165Z,41.51
2023-05-01T13:48:19.712Z,41.47
2023-05-01T13:50:49.986Z,41.49
2023-05-01T13:53:24.312Z,41.64
2023-05-01T13:55:54.060Z,41.64
2023-05-01T13:58:23.229Z,41.74
2023-05-01T14:00:52.589Z,41.78
2023-05-01T14:03:21.655Z,41.78
2023-05-01T14:05:51.080Z,41.86
2023-05-01T14:08:28.886Z,41.89
2023-05-01T14:10:59.613Z,41.96
2023-05-01T14:13:28.383Z,42.12
2023-05-01T14:16:06.821Z,42.42
2023-05-01T14:18:36.528Z,41.96
2023-05-01T14:21:06.192Z,42.24
2023-05-01T14:23:35.769Z,42.00
2023-05-01T14:26:05.491Z,42.30
2023-05-01T14:28:34.910Z,42.12
2023-05-01T14:31:04.074Z,42.11
2023-05-01T14:33:34.172Z,42.29
2023-05-01T14:36:03.226Z,42.64
2023-05-01T14:38:39.325Z,42.69
2023-05-01T14:41:14.031Z,42.68
2023-05-01T14:43:47.707Z,42.62
2023-05-01T14:46:28.643Z,42.39
2023-05-01T14:48:57.710Z,42.28
2023-05-01T14:51:29.286Z,42.28
2023-05-01T14:53:59.466Z,41.80
2023-05-01T14:56:28.425Z,41.58
2023-05-01T14:58:57.752Z,41.68
2023-05-01T15:01:27.553Z,41.83
2023-05-01T15:03:56.799Z,42.02
2023-05-01T15:06:29.085Z,41.98
2023-05-01T15:08:58.129Z,41.71
2023-05-01T15:11:27.442Z,41.71
2023-05-01T15:13:56.264Z,41.71
2023-05-01T15:16:25.384Z,41.75
2023-05-01T15:18:54.688Z,41.79
2023-05-01T15:21:23.402Z,41.77
2023-05-01T15:23:53.175Z,41.75
2023-05-01T15:26:22.034Z,41.61
2023-05-01T15:28:51.392Z,41.68
2023-05-01T15:31:20.716Z,41.87
2023-05-01T15:33:51.222Z,41.71
2023-05-01T15:36:22.835Z,41.62
2023-05-01T15:38:51.524Z,41.59
2023-05-01T15:41:20.513Z,41.67
2023-05-01T15:43:49.168Z,41.60
2023-05-01T15:46:18.919Z,42.05
2023-05-01T15:48:47.604Z,42.09
2023-05-01T15:51:17.188Z,41.64
2023-05-01T15:53:48.238Z,41.50
2023-05-01T15:56:19.228Z,41.46
2023-05-01T15:58:49.184Z,41.56
2023-05-01T16:01:21.269Z,41.76
2023-05-01T16:03:50.400Z,42.04
2023-05-01T16:06:20.786Z,41.84
2023-05-01T16:08:50.032Z,41.78
2023-05-01T16:11:19.966Z,41.86
2023-05-01T16:13:49.920Z,41.95
2023-05-01T16:16:30.489Z,41.90
2023-05-01T16:19:01.049Z,42.09
2023-05-01T16:21:29.578Z,41.71
2023-05-01T16:23:58.948Z,41.56
2023-05-01T16:26:29.623Z,41.59
2023-05-01T16:29:01.654Z,41.73
2023-05-01T16:31:39.335Z,41.64
2023-05-01T16:34:11.351Z,41.42
2023-05-01T16:36:44.178Z,41.30
2023-05-01T16:39:21.920Z,41.55
2023-05-01T16:41:55.439Z,41.54
2023-05-01T16:44:25.055Z,41.58
2023-05-01T16:46:54.828Z,41.58
2023-05-01T16:49:25.026Z,41.82
2023-05-01T16:52:04.266Z,41.62
2023-05-01T16:54:36.691Z,41.64
2023-05-01T16:57:05.992Z,41.40
2023-05-01T16:59:36.086Z,41.40
2023-05-01T17:02:06.210Z,41.28
2023-05-01T17:04:35.256Z,41.39
2023-05-01T17:07:04.153Z,41.26
2023-05-01T17:09:33.255Z,41.30
2023-05-01T17:12:05.045Z,41.44
2023-05-01T17:14:33.782Z,41.31
2023-05-01T17:17:04.538Z,41.32
2023-05-01T17:19:36.377Z,41.55
2023-05-01T17:22:06.123Z,41.53
2023-05-01T17:24:37.319Z,41.54
2023-05-01T17:27:07.846Z,41.78
2023-05-01T17:29:37.964Z,41.89
2023-05-01T17:32:09.001Z,41.92
2023-05-01T17:34:38.078Z,42.22
2023-05-01T17:37:09.069Z,42.21
2023-05-01T17:39:37.544Z,42.31
2023-05-01T17:42:06.297Z,42.39
2023-05-01T17:44:35.896Z,42.23
2023-05-01T17:47:04.683Z,42.17
2023-05-01T17:49:33.683Z,42.25
2023-05-01T17:52:03.241Z,42.32
2023-05-01T17:54:31.858Z,42.43
2023-05-01T17:57:00.762Z,42.52
2023-05-01T17:59:31.733Z,42.18
2023-05-01T18:02:00.803Z,42.09
2023-05-01T18:04:30.175Z,42.03
2023-05-01T18:06:59.884Z,41.89
2023-05-01T18:09:28.954Z,41.89
2023-05-01T18:11:57.615Z,42.03
2023-05-01T18:14:27.332Z,41.83
2023-05-01T18:16:56.829Z,41.66
2023-05-01T18:19:25.669Z,41.75
2023-05-01T18:21:54.439Z,41.69
2023-05-01T18:24:23.662Z,41.71
2023-05-01T18:26:52.764Z,41.63
2023-05-01T18:29:25.661Z,41.37
2023-05-01T18:31:59.751Z,41.50
2023-05-01T18:34:29.507Z,41.79
2023-05-01T18:36:59.112Z,41.71
2023-05-01T18:39:27.712Z,41.59
2023-05-01T18:41:56.866Z,41.58
2023-05-01T18:44:26.906Z,41.63
2023-05-01T18:46:55.745Z,41.58
2023-05-01T18:49:26.666Z,41.67
2023-05-01T18:51:55.723Z,41.68
2023-05-01T18:54:25.298Z,41.74
2023-05-01T18:56:53.940Z,41.69
2023-05-01T18:59:23.452Z,41.63
2023-05-01T19:01:54.827Z,41.80
2023-05-01T19:04:25.553Z,41.88
2023-05-01T19:06:55.470Z,41.94
2023-05-01T19:09:24.882Z,41.79
2023-05-01T19:11:53.043Z,41.80
2023-05-01T19:14:22.205Z,41.77
2023-05-01T19:16:51.476Z,41.73
2023-05-01T19:19:20.907Z,41.82
2023-05-01T19:21:51.673Z,41.83
2023-05-01T19:24:21.238Z,41.86
2023-05-01T19:26:49.904Z,42.25
2023-05-01T19:29:19.381Z,41.91
2023-05-01T19:31:48.257Z,42.10
2023-05-01T19:34:17.403Z,41.89
2023-05-01T19:36:47.354Z,41.83
2023-05-01T19:39:17.298Z,41.90
2023-05-01T19:41:47.598Z,41.89
2023-05-01T19:44:17.607Z,41.86
2023-05-01T19:46:47.399Z,41.94
2023-05-01T19:49:17.539Z,41.98
2023-05-01T19:51:47.708Z,41.95
2023-05-01T19:54:18.312Z,42.08
2023-05-01T19:56:50.294Z,41.92
2023-05-01T19:59:21.030Z,41.88
2023-05-01T20:01:49.684Z,41.95
2023-05-01T20:04:19.037Z,41.83
2023-05-01T20:06:49.472Z,41.85
2023-05-01T20:09:19.376Z,41.85
2023-05-01T20:11:48.813Z,41.90
2023-05-01T20:14:17.644Z,41.91
2023-05-01T20:16:47.057Z,41.83
2023-05-01T20:19:18.194Z,41.83
2023-05-01T20:21:47.194Z,41.85
2023-05-01T20:24:17.160Z,41.84
2023-05-01T20:26:46.210Z,41.93
2023-05-01T20:29:15.675Z,42.04
2023-05-01T20:31:45.061Z,42.20
2023-05-01T20:34:13.392Z,42.12
2023-05-01T20:36:44.187Z,42.74
2023-05-01T20:39:13.460Z,42.59
2023-05-01T20:41:44.595Z,42.89
2023-05-01T20:44:13.545Z,43.01
2023-05-01T20:46:45.047Z,43.01
2023-05-01T20:49:15.828Z,43.22
2023-05-01T20:51:45.511Z,43.29
2023-05-01T20:54:15.333Z,43.12
2023-05-01T20:56:44.313Z,43.12
2023-05-01T20:59:15.404Z,43.17
2023-05-01T21:01:45.149Z,42.85
2023-05-01T21:04:15.170Z,42.66
2023-05-01T21:06:44.894Z,42.50
2023-05-01T21:09:16.840Z,42.83
2023-05-01T21:11:47.583Z,42.86
2023-05-01T21:14:17.611Z,42.58
2023-05-01T21:16:47.592Z,42.82
2023-05-01T21:19:17.298Z,42.56
2023-05-01T21:21:46.434Z,42.56
2023-05-01T21:24:25.859Z,42.58
2023-05-01T21:26:55.832Z,42.80
2023-05-01T21:29:25.375Z,42.91
2023-05-01T21:31:53.914Z,42.85
2023-05-01T21:34:22.672Z,42.82
2023-05-01T21:36:52.164Z,42.63
2023-05-01T21:39:22.754Z,42.38
2023-05-01T21:41:54.203Z,42.52
2023-05-01T21:44:29.644Z,42.46
2023-05-01T21:46:59.093Z,42.63
2023-05-01T21:49:28.866Z,43.05
2023-05-01T21:52:01.470Z,42.96
2023-05-01T21:54:35.697Z,43.10
2023-05-01T21:57:09.210Z,42.66
2023-05-01T21:59:41.576Z,42.63
2023-05-01T22:02:14.385Z,42.83
2023-05-01T22:04:44.171Z,43.05
2023-05-01T22:07:13.651Z,43.12
2023-05-01T22:09:45.302Z,43.05
2023-05-01T22:12:14.980Z,43.11
2023-05-01T22:14:47.866Z,42.91
2023-05-01T22:17:25.018Z,42.93
2023-05-01T22:19:54.402Z,42.64
2023-05-01T22:22:24.102Z,42.53
2023-05-01T22:24:53.349Z,42.47
2023-05-01T22:27:21.712Z,42.50
2023-05-01T22:29:51.117Z,42.54
2023-05-01T22:32:20.589Z,42.71
2023-05-01T22:34:49.600Z,42.80
2023-05-01T22:37:20.482Z,42.79
2023-05-01T22:39:49.679Z,42.69
2023-05-01T22:42:19.436Z,42.61
2023-05-01T22:44:48.912Z,43.26
2023-05-01T22:47:18.269Z,43.49
2023-05-01T22:49:47.931Z,43.35
2023-05-01T22:52:21.934Z,43.61
2023-05-01T22:54:54.239Z,43.70
2023-05-01T22:57:23.610Z,43.61
2023-05-01T22:59:52.260Z,43.50
2023-05-01T23:02:22.192Z,43.36
2023-05-01T23:04:52.939Z,43.61
2023-05-01T23:07:22.509Z,43.51
2023-05-01T23:09:53.531Z,43.50
2023-05-01T23:12:26.594Z,43.78
2023-05-01T23:14:56.210Z,43.49
2023-05-01T23:17:28.236Z,43.53
2023-05-01T23:20:00.132Z,43.23
2023-05-01T23:22:31.435Z,43.18
2023-05-01T23:24:59.798Z,42.85
2023-05-01T23:27:29.045Z,42.72
2023-05-01T23:29:58.748Z,42.89
2023-05-01T23:32:32.021Z,42.85
2023-05-01T23:35:25.963Z,43.17
2023-05-01T23:37:55.706Z,43.02
2023-05-01T23:40:25.594Z,42.76
2023-05-01T23:42:57.037Z,43.02
2023-05-01T23:45:26.936Z,42.83
2023-05-01T23:47:56.301Z,42.98
2023-05-01T23:50:27.908Z,43.18
2023-05-01T23:52:57.434Z,43.10
2023-05-01T23:55:26.657Z,44.30
2023-05-01T23:57:57.422Z,43.40
